createdAt,value
2022-07-26T00:00:40.015Z,18.75
2022-07-26T00:03:57.629Z,18.61
2022-07-26T00:07:13.741Z,18.56
2022-07-26T00:10:29.903Z,18.48
2022-07-26T00:13:46.003Z,18.34
2022-07-26T00:17:02.214Z,18.23
2022-07-26T00:20:21.757Z,18.15
2022-07-26T00:23:39.843Z,18.10
2022-07-26T00:26:55.848Z,18.03
2022-07-26T00:30:13.503Z,17.99
2022-07-26T00:33:29.587Z,17.91
2022-07-26T00:36:45.576Z,17.82
2022-07-26T00:40:01.635Z,17.78
2022-07-26T00:43:19.012Z,17.77
2022-07-26T00:46:35.966Z,17.69
2022-07-26T00:49:52.817Z,17.67
2022-07-26T00:53:09.246Z,17.67
2022-07-26T00:56:25.904Z,17.64
2022-07-26T00:59:42.097Z,17.62
2022-07-26T01:02:58.091Z,17.63
2022-07-26T01:06:15.015Z,17.53
2022-07-26T01:09:31.299Z,17.45
2022-07-26T01:12:51.681Z,17.36
2022-07-26T01:16:07.791Z,17.32
2022-07-26T01:19:24.102Z,17.30
2022-07-26T01:22:40.421Z,17.38
2022-07-26T01:25:56.824Z,17.34
2022-07-26T01:29:14.091Z,17.26
2022-07-26T01:32:30.415Z,17.19
2022-07-26T01:35:46.487Z,17.16
2022-07-26T01:39:02.593Z,17.14
2022-07-26T01:42:18.748Z,17.13
2022-07-26T01:45:35.029Z,17.10
2022-07-26T01:48:51.374Z,17.07
2022-07-26T01:52:07.392Z,17.03
2022-07-26T01:55:23.756Z,17.05
2022-07-26T01:58:40.147Z,17.07
2022-07-26T02:01:56.361Z,17.10
2022-07-26T02:05:13.465Z,17.12
2022-07-26T02:08:29.375Z,17.11
2022-07-26T02:11:45.894Z,17.10
2022-07-26T02:15:02.343Z,17.11
2022-07-26T02:18:18.533Z,17.08
2022-07-26T02:21:34.543Z,17.02
2022-07-26T02:24:50.660Z,16.99
2022-07-26T02:28:06.805Z,17.00
2022-07-26T02:31:22.988Z,17.02
2022-07-26T02:34:43.367Z,17.03
2022-07-26T02:37:59.495Z,17.03
2022-07-26T02:41:15.731Z,17.07
2022-07-26T02:44:33.083Z,17.08
2022-07-26T02:48:00.489Z,17.04
2022-07-26T02:51:17.441Z,17.06
2022-07-26T02:54:33.488Z,17.02
2022-07-26T02:57:49.517Z,17.02
2022-07-26T03:01:05.735Z,17.01
2022-07-26T03:04:21.933Z,17.01
2022-07-26T03:07:38.693Z,17.03
2022-07-26T03:10:54.645Z,17.03
2022-07-26T03:14:11.614Z,17.05
2022-07-26T03:17:28.170Z,17.06
2022-07-26T03:20:44.274Z,17.06
2022-07-26T03:24:00.471Z,17.00
2022-07-26T03:27:16.625Z,17.00
2022-07-26T03:30:32.946Z,17.01
2022-07-26T03:33:49.179Z,17.03
2022-07-26T03:37:05.380Z,17.08
2022-07-26T03:40:23.007Z,17.13
2022-07-26T03:43:39.195Z,17.22
2022-07-26T03:46:55.253Z,17.27
2022-07-26T03:50:14.463Z,17.28
2022-07-26T03:53:30.996Z,17.29
2022-07-26T03:56:48.704Z,17.34
2022-07-26T04:00:04.883Z,17.41
2022-07-26T04:03:23.503Z,17.48
2022-07-26T04:06:39.737Z,17.54
2022-07-26T04:09:55.777Z,17.61
2022-07-26T04:13:11.754Z,17.70
2022-07-26T04:16:28.306Z,17.72
2022-07-26T04:19:47.308Z,17.74
2022-07-26T04:23:03.240Z,17.77
2022-07-26T04:26:19.821Z,17.80
2022-07-26T04:29:36.135Z,17.81
2022-07-26T04:32:52.704Z,17.82
2022-07-26T04:36:10.067Z,17.81
2022-07-26T04:39:26.447Z,17.84
2022-07-26T04:42:42.523Z,17.94
2022-07-26T04:45:59.265Z,18.05
2022-07-26T04:49:16.766Z,18.18
2022-07-26T04:52:32.881Z,18.31
2022-07-26T04:55:50.978Z,18.49
2022-07-26T04:59:06.978Z,18.67
2022-07-26T05:02:23.014Z,18.82
2022-07-26T05:05:40.623Z,18.98
2022-07-26T05:08:56.575Z,19.09
2022-07-26T05:12:14.018Z,19.18
2022-07-26T05:15:35.395Z,19.24
2022-07-26T05:18:49.434Z,19.33
2022-07-26T05:22:05.835Z,19.45
2022-07-26T05:25:22.121Z,19.58
2022-07-26T05:28:38.362Z,19.65
2022-07-26T05:31:58.078Z,19.72
2022-07-26T05:35:17.713Z,19.81
2022-07-26T05:38:37.260Z,19.89
2022-07-26T05:41:55.362Z,19.94
2022-07-26T05:45:14.475Z,19.99
2022-07-26T05:48:30.797Z,20.07
2022-07-26T05:51:47.337Z,20.20
2022-07-26T05:55:07.963Z,20.36
2022-07-26T05:58:24.207Z,20.57
2022-07-26T06:01:40.476Z,20.75
2022-07-26T06:04:56.882Z,20.89
2022-07-26T06:08:13.238Z,20.98
2022-07-26T06:11:30.898Z,21.07
2022-07-26T06:14:47.103Z,21.16
2022-07-26T06:18:03.260Z,21.23
2022-07-26T06:21:19.442Z,21.26
2022-07-26T06:24:37.184Z,21.26
2022-07-26T06:27:55.963Z,21.29
2022-07-26T06:31:13.155Z,21.37
2022-07-26T06:34:30.288Z,21.50
2022-07-26T06:37:49.299Z,21.59
2022-07-26T06:41:07.809Z,21.62
2022-07-26T06:44:23.891Z,21.67
2022-07-26T06:47:41.094Z,21.73
2022-07-26T06:50:57.420Z,21.77
2022-07-26T06:54:13.897Z,21.77
2022-07-26T06:57:30.064Z,21.89
2022-07-26T07:00:46.490Z,21.95
2022-07-26T07:04:04.588Z,22.04
2022-07-26T07:07:21.312Z,22.21
2022-07-26T07:10:38.773Z,22.35
2022-07-26T07:13:55.325Z,22.52
2022-07-26T07:17:15.002Z,22.76
2022-07-26T07:20:30.643Z,23.10
2022-07-26T07:23:46.559Z,23.34
2022-07-26T07:27:02.922Z,23.59
2022-07-26T07:30:21.393Z,23.93
2022-07-26T07:33:52.743Z,24.22
2022-07-26T07:36:56.194Z,24.41
2022-07-26T07:40:19.412Z,24.62
2022-07-26T07:43:36.244Z,24.89
2022-07-26T07:46:55.530Z,25.09
2022-07-26T07:50:15.058Z,25.38
2022-07-26T07:53:37.755Z,25.68
2022-07-26T07:57:12.121Z,26.01
2022-07-26T08:00:56.369Z,26.36
2022-07-26T08:04:31.864Z,26.52
2022-07-26T08:08:11.861Z,26.55
2022-07-26T08:11:55.888Z,26.51
2022-07-26T08:15:51.507Z,26.33
2022-07-26T08:19:07.341Z,26.20
2022-07-26T08:22:25.367Z,26.06
2022-07-26T08:25:55.631Z,25.92
2022-07-26T08:29:01.187Z,25.90
2022-07-26T08:32:17.875Z,25.92
2022-07-26T08:45:53.470Z,25.51
2022-07-26T08:50:21.379Z,25.33
2022-07-26T09:07:14.898Z,24.36
2022-07-26T09:17:00.020Z,24.36
2022-07-26T09:25:31.712Z,24.61
2022-07-26T09:29:06.112Z,24.56
2022-07-26T09:32:36.003Z,24.60
2022-07-26T09:36:16.470Z,24.66
2022-07-26T09:39:39.139Z,24.63
2022-07-26T09:43:07.863Z,24.63
2022-07-26T09:46:30.488Z,24.58
2022-07-26T09:53:54.711Z,24.37
2022-07-26T09:57:39.327Z,24.17
2022-07-26T10:05:37.790Z,23.90
2022-07-26T10:08:54.143Z,23.77
2022-07-26T10:12:14.256Z,23.66
2022-07-26T10:15:49.005Z,23.57
2022-07-26T10:19:05.926Z,23.54
2022-07-26T10:22:42.724Z,23.51
2022-07-26T10:26:00.413Z,23.50
2022-07-26T10:29:37.282Z,23.46
2022-07-26T10:33:07.383Z,23.48
2022-07-26T10:36:36.929Z,23.41
2022-07-26T10:39:53.596Z,23.41
2022-07-26T10:46:38.037Z,23.43
2022-07-26T10:50:06.264Z,23.45
2022-07-26T10:53:28.732Z,23.46
2022-07-26T10:56:45.544Z,23.47
2022-07-26T11:00:02.861Z,23.45
2022-07-26T11:03:19.182Z,23.46
2022-07-26T11:06:40.147Z,23.41
2022-07-26T11:09:56.776Z,23.35
2022-07-26T11:13:24.424Z,23.28
2022-07-26T11:16:47.438Z,23.23
2022-07-26T11:20:05.084Z,23.21
2022-07-26T11:23:36.758Z,23.15
2022-07-26T11:26:54.346Z,23.16
2022-07-26T11:30:16.356Z,23.12
2022-07-26T11:33:47.461Z,23.07
2022-07-26T11:37:05.621Z,22.95
2022-07-26T11:40:22.362Z,22.87
2022-07-26T11:43:45.799Z,22.80
2022-07-26T11:47:04.298Z,22.74
2022-07-26T11:50:23.027Z,22.75
2022-07-26T11:53:42.826Z,22.78
2022-07-26T11:57:05.877Z,22.81
2022-07-26T12:00:26.226Z,22.81
2022-07-26T12:03:44.055Z,22.85
2022-07-26T12:07:04.125Z,22.84
2022-07-26T12:10:25.437Z,22.82
2022-07-26T12:14:08.031Z,22.82
2022-07-26T12:17:34.909Z,22.77
2022-07-26T12:20:54.697Z,22.72
2022-07-26T12:24:08.944Z,22.69
2022-07-26T12:27:30.197Z,22.61
2022-07-26T12:30:46.413Z,22.58
2022-07-26T12:34:03.328Z,22.59
2022-07-26T12:37:39.564Z,22.64
2022-07-26T12:40:50.532Z,22.65
2022-07-26T12:44:06.837Z,22.61
2022-07-26T12:47:23.048Z,22.59
2022-07-26T12:50:40.070Z,22.54
2022-07-26T12:53:58.026Z,22.45
2022-07-26T12:57:14.992Z,22.40
2022-07-26T13:00:31.669Z,22.37
2022-07-26T13:03:47.942Z,22.23
2022-07-26T13:07:04.433Z,22.20
2022-07-26T13:10:33.045Z,22.12
2022-07-26T13:13:44.062Z,22.01
2022-07-26T13:17:01.042Z,21.88
2022-07-26T13:20:19.659Z,21.78
2022-07-26T13:23:36.316Z,21.71
2022-07-26T13:26:52.476Z,21.65
2022-07-26T13:30:09.094Z,21.52
2022-07-26T13:33:25.122Z,21.38
2022-07-26T13:36:41.456Z,21.34
2022-07-26T13:39:59.956Z,21.29
2022-07-26T13:43:16.047Z,21.21
2022-07-26T13:46:33.593Z,21.08
2022-07-26T13:49:50.742Z,20.88
2022-07-26T13:53:07.030Z,20.63
2022-07-26T13:56:23.079Z,20.48
2022-07-26T13:59:39.344Z,20.36
2022-07-26T14:02:55.616Z,20.33
2022-07-26T14:06:12.184Z,20.26
2022-07-26T14:09:29.921Z,20.15
2022-07-26T14:12:45.984Z,20.16
2022-07-26T14:16:02.157Z,20.08
2022-07-26T14:19:19.027Z,19.98
2022-07-26T14:22:36.061Z,19.99
2022-07-26T14:25:52.761Z,19.97
2022-07-26T14:29:09.066Z,19.90
2022-07-26T14:32:25.956Z,19.83
2022-07-26T14:35:42.674Z,19.79
2022-07-26T14:38:59.139Z,19.81
2022-07-26T14:42:15.622Z,19.74
2022-07-26T14:45:33.272Z,19.65
2022-07-26T14:48:54.887Z,19.67
2022-07-26T14:52:06.097Z,19.65
2022-07-26T14:55:25.280Z,19.61
2022-07-26T14:58:41.089Z,19.59
2022-07-26T15:01:58.771Z,19.55
2022-07-26T15:05:17.168Z,19.56
2022-07-26T15:08:33.447Z,19.53
2022-07-26T15:11:51.592Z,19.54
2022-07-26T15:15:07.827Z,19.59
2022-07-26T15:18:24.364Z,19.54
2022-07-26T15:21:40.479Z,19.53
2022-07-26T15:24:56.557Z,19.60
2022-07-26T15:28:13.301Z,19.65
2022-07-26T15:31:37.018Z,19.67
2022-07-26T15:34:49.388Z,19.72
2022-07-26T15:38:05.660Z,19.76
2022-07-26T15:41:23.757Z,19.78
2022-07-26T15:44:40.655Z,19.75
2022-07-26T15:48:09.409Z,19.65
2022-07-26T15:51:17.797Z,19.71
2022-07-26T15:54:33.969Z,19.71
2022-07-26T15:57:50.367Z,19.72
2022-07-26T16:01:08.831Z,19.73
2022-07-26T16:04:25.019Z,19.75
2022-07-26T16:07:42.190Z,19.74
2022-07-26T16:10:59.546Z,19.75
2022-07-26T16:14:15.871Z,19.77
2022-07-26T16:17:32.163Z,19.78
2022-07-26T16:20:48.517Z,19.82
2022-07-26T16:24:07.058Z,19.85
2022-07-26T16:27:24.385Z,19.86
2022-07-26T16:30:41.155Z,19.83
2022-07-26T16:33:57.235Z,19.82
2022-07-26T16:37:14.309Z,19.75
2022-07-26T16:40:30.744Z,19.75
2022-07-26T16:43:47.013Z,19.67
2022-07-26T16:47:03.170Z,19.64
2022-07-26T16:50:27.236Z,19.63
2022-07-26T16:53:40.710Z,19.59
2022-07-26T16:56:56.888Z,19.54
2022-07-26T17:00:19.689Z,19.52
2022-07-26T17:03:36.753Z,19.54
2022-07-26T17:07:22.265Z,19.53
2022-07-26T17:10:12.690Z,19.50
2022-07-26T17:13:29.024Z,19.48
2022-07-26T17:16:45.851Z,19.49
2022-07-26T17:20:02.651Z,19.46
2022-07-26T17:23:19.107Z,19.44
2022-07-26T17:26:36.471Z,19.39
2022-07-26T17:29:54.166Z,19.36
2022-07-26T17:33:11.101Z,19.34
2022-07-26T17:36:36.655Z,19.32
2022-07-26T17:39:55.183Z,19.28
2022-07-26T17:43:13.500Z,19.21
2022-07-26T17:46:32.916Z,19.19
2022-07-26T17:49:49.498Z,19.23
2022-07-26T17:53:05.646Z,19.22
2022-07-26T17:56:21.947Z,19.22
2022-07-26T17:59:38.124Z,19.20
2022-07-26T18:02:55.311Z,19.22
2022-07-26T18:06:11.917Z,19.19
2022-07-26T18:09:28.131Z,19.22
2022-07-26T18:12:44.144Z,19.24
2022-07-26T18:16:05.736Z,19.27
2022-07-26T18:19:17.228Z,19.23
2022-07-26T18:22:33.869Z,19.23
2022-07-26T18:25:54.578Z,19.20
2022-07-26T18:29:16.058Z,19.18
2022-07-26T18:32:35.091Z,19.12
2022-07-26T18:36:02.715Z,19.08
2022-07-26T18:39:19.814Z,19.06
2022-07-26T18:42:37.093Z,18.98
2022-07-26T18:45:54.158Z,18.94
2022-07-26T18:49:14.069Z,18.93
2022-07-26T18:52:31.964Z,18.92
2022-07-26T18:55:47.032Z,18.91
2022-07-26T18:59:03.152Z,18.87
2022-07-26T19:02:19.343Z,18.89
2022-07-26T19:05:36.383Z,18.87
2022-07-26T19:08:52.768Z,18.80
2022-07-26T19:12:08.997Z,18.76
2022-07-26T19:15:26.313Z,18.74
2022-07-26T19:18:45.826Z,18.71
2022-07-26T19:22:01.297Z,18.66
2022-07-26T19:25:20.903Z,18.64
2022-07-26T19:28:37.865Z,18.62
2022-07-26T19:31:54.435Z,18.59
2022-07-26T19:35:12.465Z,18.59
2022-07-26T19:38:28.931Z,18.55
2022-07-26T19:41:45.209Z,18.52
2022-07-26T19:45:01.398Z,18.50
2022-07-26T19:48:17.895Z,18.43
2022-07-26T19:51:34.555Z,18.38
2022-07-26T19:54:51.814Z,18.41
2022-07-26T19:58:08.022Z,18.42
2022-07-26T20:01:24.265Z,18.40
2022-07-26T20:04:45.476Z,18.38
2022-07-26T20:07:58.528Z,18.42
2022-07-26T20:11:16.426Z,18.40
2022-07-26T20:14:32.757Z,18.35
2022-07-26T20:17:49.179Z,18.28
2022-07-26T20:21:06.184Z,18.23
2022-07-26T20:24:22.286Z,18.20
2022-07-26T20:27:38.328Z,18.11
2022-07-26T20:30:55.726Z,18.04
2022-07-26T20:34:12.007Z,18.01
2022-07-26T20:37:28.139Z,17.98
2022-07-26T20:40:44.363Z,17.93
2022-07-26T20:44:00.756Z,17.86
2022-07-26T20:47:17.537Z,17.81
2022-07-26T20:50:33.775Z,17.75
2022-07-26T20:53:50.212Z,17.67
2022-07-26T20:57:06.198Z,17.68
2022-07-26T21:00:26.893Z,17.62
2022-07-26T21:03:42.998Z,17.57
2022-07-26T21:06:59.249Z,17.57
2022-07-26T21:10:16.901Z,17.56
2022-07-26T21:13:35.035Z,17.55
2022-07-26T21:16:51.213Z,17.52
2022-07-26T21:20:07.686Z,17.49
2022-07-26T21:23:24.473Z,17.48
2022-07-26T21:26:40.595Z,17.48
2022-07-26T21:29:56.587Z,17.42
2022-07-26T21:33:12.700Z,17.40
2022-07-26T21:36:28.805Z,17.39
2022-07-26T21:39:44.715Z,17.36
2022-07-26T21:43:02.079Z,17.34
2022-07-26T21:46:20.489Z,17.34
2022-07-26T21:49:36.555Z,17.34
2022-07-26T21:52:52.540Z,17.30
2022-07-26T21:56:09.151Z,17.26
2022-07-26T21:59:26.564Z,17.24
2022-07-26T22:02:42.631Z,17.24
2022-07-26T22:05:58.837Z,17.19
2022-07-26T22:09:15.459Z,17.18
2022-07-26T22:12:32.192Z,17.15
2022-07-26T22:15:48.790Z,17.13
2022-07-26T22:19:04.810Z,17.10
2022-07-26T22:22:20.853Z,17.10
2022-07-26T22:25:41.728Z,17.12
2022-07-26T22:28:57.852Z,17.17
2022-07-26T22:32:14.534Z,17.11
2022-07-26T22:35:32.314Z,17.05
2022-07-26T22:38:47.102Z,17.06
2022-07-26T22:42:15.355Z,17.05
2022-07-26T22:45:22.137Z,17.05
2022-07-26T22:48:38.936Z,16.98
2022-07-26T22:51:56.217Z,16.92
2022-07-26T22:55:14.446Z,16.85
2022-07-26T22:58:30.868Z,16.81
2022-07-26T23:01:46.863Z,16.81
2022-07-26T23:05:02.823Z,16.80
2022-07-26T23:11:37.078Z,16.75
2022-07-26T23:14:53.200Z,16.74
2022-07-26T23:18:09.262Z,16.71
2022-07-26T23:21:25.285Z,16.75
2022-07-26T23:24:43.526Z,16.73
2022-07-26T23:28:00.013Z,16.71
2022-07-26T23:31:17.548Z,16.66
2022-07-26T23:34:33.694Z,16.66
2022-07-26T23:37:49.787Z,16.60
2022-07-26T23:41:06.049Z,16.58
2022-07-26T23:44:22.195Z,16.56
2022-07-26T23:47:38.512Z,16.61
2022-07-26T23:50:54.663Z,16.64
2022-07-26T23:54:10.943Z,16.65
2022-07-26T23:57:27.672Z,16.58
